sensor_id;sensor_type;location;lat;lon;timestamp;P1;durP1;ratioP1;P2;durP2;ratioP2
30247;SDS011;17063;50.892;4.702;2022-07-23T00:00:16;11.47;;;9.50;;
30247;SDS011;17063;50.892;4.702;2022-07-23T00:02:43;13.70;;;9.87;;
30247;SDS011;17063;50.892;4.702;2022-07-23T00:05:10;17.27;;;9.43;;
30247;SDS011;17063;50.892;4.702;2022-07-23T00:07:38;15.17;;;9.40;;
30247;SDS011;17063;50.892;4.702;2022-07-23T00:10:05;15.83;;;10.23;;
30247;SDS011;17063;50.892;4.702;2022-07-23T00:12:32;10.00;;;8.67;;
30247;SDS011;17063;50.892;4.702;2022-07-23T00:14:59;12.83;;;10.00;;
30247;SDS011;17063;50.892;4.702;2022-07-23T00:17:26;15.47;;;9.97;;
30247;SDS011;17063;50.892;4.702;2022-07-23T00:19:53;13.27;;;9.00;;
30247;SDS011;17063;50.892;4.702;2022-07-23T00:22:20;15.43;;;10.07;;
30247;SDS011;17063;50.892;4.702;2022-07-23T00:24:47;15.20;;;10.23;;
30247;SDS011;17063;50.892;4.702;2022-07-23T00:27:34;14.70;;;10.57;;
30247;SDS011;17063;50.892;4.702;2022-07-23T00:30:00;15.67;;;10.27;;
30247;SDS011;17063;50.892;4.702;2022-07-23T00:32:27;16.77;;;10.13;;
30247;SDS011;17063;50.892;4.702;2022-07-23T00:35:14;17.00;;;10.03;;
30247;SDS011;17063;50.892;4.702;2022-07-23T00:37:41;14.93;;;10.63;;
30247;SDS011;17063;50.892;4.702;2022-07-23T00:40:08;13.90;;;10.17;;
30247;SDS011;17063;50.892;4.702;2022-07-23T00:42:36;16.27;;;10.93;;
30247;SDS011;17063;50.892;4.702;2022-07-23T00:45:04;16.00;;;10.67;;
30247;SDS011;17063;50.892;4.702;2022-07-23T00:47:31;16.10;;;11.20;;
30247;SDS011;17063;50.892;4.702;2022-07-23T00:49:59;17.47;;;11.37;;
30247;SDS011;17063;50.892;4.702;2022-07-23T00:52:26;14.63;;;10.33;;
30247;SDS011;17063;50.892;4.702;2022-07-23T00:54:52;16.97;;;11.00;;
30247;SDS011;17063;50.892;4.702;2022-07-23T00:57:19;15.37;;;10.83;;
30247;SDS011;17063;50.892;4.702;2022-07-23T00:59:53;19.20;;;11.30;;
30247;SDS011;17063;50.892;4.702;2022-07-23T01:02:20;16.97;;;11.77;;
30247;SDS011;17063;50.892;4.702;2022-07-23T01:04:47;15.83;;;11.80;;
30247;SDS011;17063;50.892;4.702;2022-07-23T01:07:13;15.87;;;11.50;;
30247;SDS011;17063;50.892;4.702;2022-07-23T01:09:41;15.30;;;11.10;;
30247;SDS011;17063;50.892;4.702;2022-07-23T01:12:08;15.90;;;11.50;;
30247;SDS011;17063;50.892;4.702;2022-07-23T01:14:35;17.80;;;12.10;;
30247;SDS011;17063;50.892;4.702;2022-07-23T01:17:02;16.17;;;11.73;;
30247;SDS011;17063;50.892;4.702;2022-07-23T01:19:29;15.87;;;11.00;;
30247;SDS011;17063;50.892;4.702;2022-07-23T01:21:57;15.00;;;11.10;;
30247;SDS011;17063;50.892;4.702;2022-07-23T01:24:25;17.50;;;11.00;;
30247;SDS011;17063;50.892;4.702;2022-07-23T01:26:59;16.97;;;10.53;;
30247;SDS011;17063;50.892;4.702;2022-07-23T01:29:26;14.03;;;10.60;;
30247;SDS011;17063;50.892;4.702;2022-07-23T01:31:53;16.07;;;10.93;;
30247;SDS011;17063;50.892;4.702;2022-07-23T01:34:24;15.90;;;10.60;;
30247;SDS011;17063;50.892;4.702;2022-07-23T01:36:50;15.17;;;10.80;;
30247;SDS011;17063;50.892;4.702;2022-07-23T01:39:17;16.00;;;11.20;;
30247;SDS011;17063;50.892;4.702;2022-07-23T01:41:45;14.53;;;11.63;;
30247;SDS011;17063;50.892;4.702;2022-07-23T01:44:17;15.60;;;11.17;;
30247;SDS011;17063;50.892;4.702;2022-07-23T01:46:44;15.83;;;11.37;;
30247;SDS011;17063;50.892;4.702;2022-07-23T01:49:11;16.87;;;11.67;;
30247;SDS011;17063;50.892;4.702;2022-07-23T01:51:57;18.47;;;11.47;;
30247;SDS011;17063;50.892;4.702;2022-07-23T01:54:37;14.47;;;10.97;;
30247;SDS011;17063;50.892;4.702;2022-07-23T01:57:06;15.60;;;11.47;;
30247;SDS011;17063;50.892;4.702;2022-07-23T01:59:33;16.70;;;11.43;;
30247;SDS011;17063;50.892;4.702;2022-07-23T02:02:02;15.77;;;10.90;;
30247;SDS011;17063;50.892;4.702;2022-07-23T02:04:31;14.40;;;11.13;;
30247;SDS011;17063;50.892;4.702;2022-07-23T02:07:02;17.33;;;11.37;;
30247;SDS011;17063;50.892;4.702;2022-07-23T02:09:29;13.20;;;10.37;;
30247;SDS011;17063;50.892;4.702;2022-07-23T02:11:57;16.57;;;11.27;;
30247;SDS011;17063;50.892;4.702;2022-07-23T02:14:25;17.13;;;11.23;;
30247;SDS011;17063;50.892;4.702;2022-07-23T02:16:52;19.10;;;11.73;;
30247;SDS011;17063;50.892;4.702;2022-07-23T02:19:19;18.30;;;11.30;;
30247;SDS011;17063;50.892;4.702;2022-07-23T02:21:46;19.57;;;11.07;;
30247;SDS011;17063;50.892;4.702;2022-07-23T02:24:12;15.97;;;11.00;;
30247;SDS011;17063;50.892;4.702;2022-07-23T02:26:40;16.10;;;10.87;;
30247;SDS011;17063;50.892;4.702;2022-07-23T02:29:08;18.30;;;10.97;;
30247;SDS011;17063;50.892;4.702;2022-07-23T02:31:35;15.37;;;10.80;;
30247;SDS011;17063;50.892;4.702;2022-07-23T02:34:02;17.80;;;11.20;;
30247;SDS011;17063;50.892;4.702;2022-07-23T02:36:29;15.47;;;11.00;;
30247;SDS011;17063;50.892;4.702;2022-07-23T02:38:56;13.53;;;10.37;;
30247;SDS011;17063;50.892;4.702;2022-07-23T02:41:25;13.73;;;10.90;;
30247;SDS011;17063;50.892;4.702;2022-07-23T02:43:52;14.77;;;10.37;;
30247;SDS011;17063;50.892;4.702;2022-07-23T02:46:20;15.00;;;10.60;;
30247;SDS011;17063;50.892;4.702;2022-07-23T02:48:47;17.23;;;10.80;;
30247;SDS011;17063;50.892;4.702;2022-07-23T02:51:14;17.00;;;11.07;;
30247;SDS011;17063;50.892;4.702;2022-07-23T02:53:48;15.17;;;11.20;;
30247;SDS011;17063;50.892;4.702;2022-07-23T02:56:15;16.70;;;11.10;;
30247;SDS011;17063;50.892;4.702;2022-07-23T02:58:41;14.97;;;10.13;;
30247;SDS011;17063;50.892;4.702;2022-07-23T03:01:08;15.73;;;10.70;;
30247;SDS011;17063;50.892;4.702;2022-07-23T03:03:35;15.03;;;11.37;;
30247;SDS011;17063;50.892;4.702;2022-07-23T03:06:02;18.00;;;10.67;;
30247;SDS011;17063;50.892;4.702;2022-07-23T03:08:29;17.80;;;12.00;;
30247;SDS011;17063;50.892;4.702;2022-07-23T03:10:55;17.73;;;11.03;;
30247;SDS011;17063;50.892;4.702;2022-07-23T03:13:22;13.97;;;10.83;;
30247;SDS011;17063;50.892;4.702;2022-07-23T03:15:50;17.30;;;10.83;;
30247;SDS011;17063;50.892;4.702;2022-07-23T03:18:18;15.00;;;10.67;;
30247;SDS011;17063;50.892;4.702;2022-07-23T03:20:44;14.60;;;11.17;;
30247;SDS011;17063;50.892;4.702;2022-07-23T03:23:12;13.63;;;10.67;;
30247;SDS011;17063;50.892;4.702;2022-07-23T03:25:39;16.77;;;11.00;;
30247;SDS011;17063;50.892;4.702;2022-07-23T03:28:06;17.57;;;11.17;;
30247;SDS011;17063;50.892;4.702;2022-07-23T03:30:33;15.50;;;10.23;;
30247;SDS011;17063;50.892;4.702;2022-07-23T03:33:00;16.00;;;10.43;;
30247;SDS011;17063;50.892;4.702;2022-07-23T03:35:27;14.27;;;11.17;;
30247;SDS011;17063;50.892;4.702;2022-07-23T03:38:12;17.00;;;11.13;;
30247;SDS011;17063;50.892;4.702;2022-07-23T03:40:39;14.23;;;10.37;;
30247;SDS011;17063;50.892;4.702;2022-07-23T03:43:06;15.27;;;11.30;;
30247;SDS011;17063;50.892;4.702;2022-07-23T03:45:33;15.23;;;10.77;;
30247;SDS011;17063;50.892;4.702;2022-07-23T03:48:00;13.73;;;10.70;;
30247;SDS011;17063;50.892;4.702;2022-07-23T03:50:28;14.47;;;11.60;;
30247;SDS011;17063;50.892;4.702;2022-07-23T03:52:55;13.50;;;11.00;;
30247;SDS011;17063;50.892;4.702;2022-07-23T03:55:22;15.23;;;10.37;;
30247;SDS011;17063;50.892;4.702;2022-07-23T03:57:48;14.73;;;10.93;;
30247;SDS011;17063;50.892;4.702;2022-07-23T04:00:15;16.17;;;11.10;;
30247;SDS011;17063;50.892;4.702;2022-07-23T04:02:44;16.67;;;10.93;;
30247;SDS011;17063;50.892;4.702;2022-07-23T04:05:12;14.87;;;11.20;;
30247;SDS011;17063;50.892;4.702;2022-07-23T04:07:41;17.27;;;11.50;;
30247;SDS011;17063;50.892;4.702;2022-07-23T04:10:07;17.80;;;12.00;;
30247;SDS011;17063;50.892;4.702;2022-07-23T04:12:35;16.00;;;11.23;;
30247;SDS011;17063;50.892;4.702;2022-07-23T04:15:03;17.77;;;11.33;;
30247;SDS011;17063;50.892;4.702;2022-07-23T04:17:31;18.27;;;12.03;;
30247;SDS011;17063;50.892;4.702;2022-07-23T04:19:57;12.80;;;10.40;;
30247;SDS011;17063;50.892;4.702;2022-07-23T04:22:29;17.10;;;11.77;;
30247;SDS011;17063;50.892;4.702;2022-07-23T04:24:56;18.20;;;11.90;;
30247;SDS011;17063;50.892;4.702;2022-07-23T04:27:23;14.73;;;10.73;;
30247;SDS011;17063;50.892;4.702;2022-07-23T04:29:50;16.90;;;11.00;;
30247;SDS011;17063;50.892;4.702;2022-07-23T04:32:17;20.57;;;11.50;;
30247;SDS011;17063;50.892;4.702;2022-07-23T04:34:44;16.03;;;11.00;;
30247;SDS011;17063;50.892;4.702;2022-07-23T04:37:11;17.50;;;10.47;;
30247;SDS011;17063;50.892;4.702;2022-07-23T04:39:38;13.53;;;10.67;;
30247;SDS011;17063;50.892;4.702;2022-07-23T04:42:05;16.07;;;11.20;;
30247;SDS011;17063;50.892;4.702;2022-07-23T04:44:32;17.17;;;11.33;;
30247;SDS011;17063;50.892;4.702;2022-07-23T04:47:00;16.43;;;11.23;;
30247;SDS011;17063;50.892;4.702;2022-07-23T04:49:28;14.77;;;10.73;;
30247;SDS011;17063;50.892;4.702;2022-07-23T04:51:54;13.90;;;10.73;;
30247;SDS011;17063;50.892;4.702;2022-07-23T04:54:21;18.60;;;11.33;;
30247;SDS011;17063;50.892;4.702;2022-07-23T04:56:48;17.10;;;11.50;;
30247;SDS011;17063;50.892;4.702;2022-07-23T04:59:16;13.03;;;10.50;;
30247;SDS011;17063;50.892;4.702;2022-07-23T05:01:44;17.67;;;11.90;;
30247;SDS011;17063;50.892;4.702;2022-07-23T05:04:10;19.23;;;11.53;;
30247;SDS011;17063;50.892;4.702;2022-07-23T05:06:38;15.13;;;10.60;;
30247;SDS011;17063;50.892;4.702;2022-07-23T05:09:05;18.50;;;11.43;;
30247;SDS011;17063;50.892;4.702;2022-07-23T05:11:33;16.43;;;11.07;;
30247;SDS011;17063;50.892;4.702;2022-07-23T05:13:59;15.77;;;10.73;;
30247;SDS011;17063;50.892;4.702;2022-07-23T05:16:27;16.00;;;11.03;;
30247;SDS011;17063;50.892;4.702;2022-07-23T05:18:59;16.83;;;10.73;;
30247;SDS011;17063;50.892;4.702;2022-07-23T05:21:27;14.17;;;11.10;;
30247;SDS011;17063;50.892;4.702;2022-07-23T05:23:54;15.57;;;10.73;;
30247;SDS011;17063;50.892;4.702;2022-07-23T05:26:21;13.80;;;10.20;;
30247;SDS011;17063;50.892;4.702;2022-07-23T05:28:48;16.17;;;10.17;;
30247;SDS011;17063;50.892;4.702;2022-07-23T05:31:18;15.80;;;10.93;;
30247;SDS011;17063;50.892;4.702;2022-07-23T05:33:46;18.40;;;10.40;;
30247;SDS011;17063;50.892;4.702;2022-07-23T05:36:13;16.70;;;10.33;;
30247;SDS011;17063;50.892;4.702;2022-07-23T05:38:50;12.90;;;9.63;;
30247;SDS011;17063;50.892;4.702;2022-07-23T05:41:16;12.83;;;9.80;;
30247;SDS011;17063;50.892;4.702;2022-07-23T05:43:43;13.07;;;9.83;;
30247;SDS011;17063;50.892;4.702;2022-07-23T05:46:13;16.93;;;9.20;;
30247;SDS011;17063;50.892;4.702;2022-07-23T05:48:41;18.77;;;9.93;;
30247;SDS011;17063;50.892;4.702;2022-07-23T05:51:25;14.13;;;9.57;;
30247;SDS011;17063;50.892;4.702;2022-07-23T05:53:52;13.07;;;9.23;;
30247;SDS011;17063;50.892;4.702;2022-07-23T05:56:21;12.93;;;7.93;;
30247;SDS011;17063;50.892;4.702;2022-07-23T05:58:47;11.63;;;7.37;;
30247;SDS011;17063;50.892;4.702;2022-07-23T06:01:16;11.50;;;7.60;;
30247;SDS011;17063;50.892;4.702;2022-07-23T06:03:49;8.27;;;6.50;;
30247;SDS011;17063;50.892;4.702;2022-07-23T06:06:16;9.53;;;7.37;;
30247;SDS011;17063;50.892;4.702;2022-07-23T06:08:44;8.17;;;7.03;;
30247;SDS011;17063;50.892;4.702;2022-07-23T06:11:11;8.60;;;6.93;;
30247;SDS011;17063;50.892;4.702;2022-07-23T06:13:38;11.00;;;7.93;;
30247;SDS011;17063;50.892;4.702;2022-07-23T06:16:05;9.27;;;7.37;;
30247;SDS011;17063;50.892;4.702;2022-07-23T06:18:32;9.70;;;7.90;;
30247;SDS011;17063;50.892;4.702;2022-07-23T06:20:59;9.57;;;7.53;;
30247;SDS011;17063;50.892;4.702;2022-07-23T06:23:26;8.63;;;7.10;;
30247;SDS011;17063;50.892;4.702;2022-07-23T06:25:53;11.23;;;8.30;;
30247;SDS011;17063;50.892;4.702;2022-07-23T06:28:20;11.40;;;7.30;;
30247;SDS011;17063;50.892;4.702;2022-07-23T06:30:47;13.70;;;7.63;;
30247;SDS011;17063;50.892;4.702;2022-07-23T06:33:14;9.70;;;7.77;;
30247;SDS011;17063;50.892;4.702;2022-07-23T06:35:43;9.83;;;7.53;;
30247;SDS011;17063;50.892;4.702;2022-07-23T06:38:10;10.73;;;7.53;;
30247;SDS011;17063;50.892;4.702;2022-07-23T06:40:37;9.03;;;7.30;;
30247;SDS011;17063;50.892;4.702;2022-07-23T06:43:04;12.53;;;8.17;;
30247;SDS011;17063;50.892;4.702;2022-07-23T06:45:35;9.23;;;7.50;;
30247;SDS011;17063;50.892;4.702;2022-07-23T06:48:02;9.60;;;7.67;;
30247;SDS011;17063;50.892;4.702;2022-07-23T06:50:29;9.13;;;7.60;;
30247;SDS011;17063;50.892;4.702;2022-07-23T06:52:57;10.80;;;7.57;;
30247;SDS011;17063;50.892;4.702;2022-07-23T06:55:24;10.13;;;7.50;;
30247;SDS011;17063;50.892;4.702;2022-07-23T06:57:51;11.80;;;8.43;;
30247;SDS011;17063;50.892;4.702;2022-07-23T07:00:18;12.20;;;7.73;;
30247;SDS011;17063;50.892;4.702;2022-07-23T07:02:46;10.73;;;8.23;;
30247;SDS011;17063;50.892;4.702;2022-07-23T07:05:13;11.00;;;7.57;;
30247;SDS011;17063;50.892;4.702;2022-07-23T07:07:39;11.03;;;7.47;;
30247;SDS011;17063;50.892;4.702;2022-07-23T07:10:06;10.60;;;7.73;;
30247;SDS011;17063;50.892;4.702;2022-07-23T07:12:40;10.70;;;7.80;;
30247;SDS011;17063;50.892;4.702;2022-07-23T07:15:07;8.43;;;7.57;;
30247;SDS011;17063;50.892;4.702;2022-07-23T07:17:34;9.07;;;7.70;;
30247;SDS011;17063;50.892;4.702;2022-07-23T07:20:01;12.50;;;7.97;;
30247;SDS011;17063;50.892;4.702;2022-07-23T07:22:28;9.47;;;8.10;;
30247;SDS011;17063;50.892;4.702;2022-07-23T07:24:55;9.53;;;7.97;;
30247;SDS011;17063;50.892;4.702;2022-07-23T07:27:22;9.90;;;7.53;;
30247;SDS011;17063;50.892;4.702;2022-07-23T07:29:49;10.50;;;8.20;;
30247;SDS011;17063;50.892;4.702;2022-07-23T07:32:16;11.50;;;7.33;;
30247;SDS011;17063;50.892;4.702;2022-07-23T07:35:03;8.80;;;7.70;;
30247;SDS011;17063;50.892;4.702;2022-07-23T07:37:30;10.53;;;8.13;;
30247;SDS011;17063;50.892;4.702;2022-07-23T07:39:57;10.33;;;6.80;;
30247;SDS011;17063;50.892;4.702;2022-07-23T07:42:24;13.23;;;7.90;;
30247;SDS011;17063;50.892;4.702;2022-07-23T07:44:51;12.40;;;7.23;;
30247;SDS011;17063;50.892;4.702;2022-07-23T07:47:18;8.80;;;7.10;;
30247;SDS011;17063;50.892;4.702;2022-07-23T07:49:44;11.33;;;6.50;;
30247;SDS011;17063;50.892;4.702;2022-07-23T07:52:11;9.13;;;6.97;;
30247;SDS011;17063;50.892;4.702;2022-07-23T07:54:40;10.57;;;7.10;;
30247;SDS011;17063;50.892;4.702;2022-07-23T07:57:07;14.73;;;6.73;;
30247;SDS011;17063;50.892;4.702;2022-07-23T07:59:34;8.97;;;6.07;;
30247;SDS011;17063;50.892;4.702;2022-07-23T08:02:00;11.77;;;6.47;;
30247;SDS011;17063;50.892;4.702;2022-07-23T08:04:27;8.50;;;5.90;;
30247;SDS011;17063;50.892;4.702;2022-07-23T08:06:54;8.17;;;6.17;;
30247;SDS011;17063;50.892;4.702;2022-07-23T08:09:21;8.57;;;6.40;;
30247;SDS011;17063;50.892;4.702;2022-07-23T08:11:48;8.80;;;6.50;;
30247;SDS011;17063;50.892;4.702;2022-07-23T08:14:18;9.33;;;7.07;;
30247;SDS011;17063;50.892;4.702;2022-07-23T08:16:47;10.67;;;6.77;;
30247;SDS011;17063;50.892;4.702;2022-07-23T08:19:34;11.33;;;7.03;;
30247;SDS011;17063;50.892;4.702;2022-07-23T08:22:02;10.70;;;7.90;;
30247;SDS011;17063;50.892;4.702;2022-07-23T08:24:30;9.03;;;6.90;;
30247;SDS011;17063;50.892;4.702;2022-07-23T08:26:57;10.40;;;7.40;;
30247;SDS011;17063;50.892;4.702;2022-07-23T08:29:24;15.57;;;6.47;;
30247;SDS011;17063;50.892;4.702;2022-07-23T08:31:52;9.33;;;6.13;;
30247;SDS011;17063;50.892;4.702;2022-07-23T08:34:19;9.17;;;6.50;;
30247;SDS011;17063;50.892;4.702;2022-07-23T08:36:46;14.77;;;7.33;;
30247;SDS011;17063;50.892;4.702;2022-07-23T08:39:16;7.33;;;5.63;;
30247;SDS011;17063;50.892;4.702;2022-07-23T08:41:42;12.63;;;6.00;;
30247;SDS011;17063;50.892;4.702;2022-07-23T08:44:09;11.27;;;6.50;;
30247;SDS011;17063;50.892;4.702;2022-07-23T08:46:36;9.73;;;5.90;;
30247;SDS011;17063;50.892;4.702;2022-07-23T08:49:10;9.37;;;5.30;;
30247;SDS011;17063;50.892;4.702;2022-07-23T08:51:39;10.00;;;5.13;;
30247;SDS011;17063;50.892;4.702;2022-07-23T08:54:06;8.13;;;5.23;;
30247;SDS011;17063;50.892;4.702;2022-07-23T08:56:37;8.03;;;4.70;;
30247;SDS011;17063;50.892;4.702;2022-07-23T09:02:06;9.30;;;5.40;;
30247;SDS011;17063;50.892;4.702;2022-07-23T09:04:34;9.03;;;4.67;;
30247;SDS011;17063;50.892;4.702;2022-07-23T09:07:01;8.33;;;5.30;;
30247;SDS011;17063;50.892;4.702;2022-07-23T09:09:28;11.60;;;5.00;;
30247;SDS011;17063;50.892;4.702;2022-07-23T09:12:03;7.90;;;4.37;;
30247;SDS011;17063;50.892;4.702;2022-07-23T09:14:43;8.47;;;5.00;;
30247;SDS011;17063;50.892;4.702;2022-07-23T09:17:15;9.93;;;4.47;;
30247;SDS011;17063;50.892;4.702;2022-07-23T09:19:44;11.63;;;4.83;;
30247;SDS011;17063;50.892;4.702;2022-07-23T09:22:18;5.90;;;4.93;;
30247;SDS011;17063;50.892;4.702;2022-07-23T09:25:11;6.93;;;4.80;;
30247;SDS011;17063;50.892;4.702;2022-07-23T09:27:50;5.50;;;3.83;;
30247;SDS011;17063;50.892;4.702;2022-07-23T09:30:30;4.20;;;3.37;;
30247;SDS011;17063;50.892;4.702;2022-07-23T09:38:16;9.23;;;3.90;;
30247;SDS011;17063;50.892;4.702;2022-07-23T09:40:44;8.00;;;3.67;;
30247;SDS011;17063;50.892;4.702;2022-07-23T09:43:25;8.47;;;3.77;;
30247;SDS011;17063;50.892;4.702;2022-07-23T09:46:19;5.33;;;3.70;;
30247;SDS011;17063;50.892;4.702;2022-07-23T09:48:47;6.70;;;3.87;;
30247;SDS011;17063;50.892;4.702;2022-07-23T09:51:14;7.33;;;4.00;;
30247;SDS011;17063;50.892;4.702;2022-07-23T09:53:45;6.33;;;3.27;;
30247;SDS011;17063;50.892;4.702;2022-07-23T09:56:12;5.07;;;3.50;;
30247;SDS011;17063;50.892;4.702;2022-07-23T09:58:40;6.97;;;4.10;;
30247;SDS011;17063;50.892;4.702;2022-07-23T10:01:36;5.40;;;3.70;;
30247;SDS011;17063;50.892;4.702;2022-07-23T10:04:03;6.87;;;3.70;;
30247;SDS011;17063;50.892;4.702;2022-07-23T10:07:04;7.77;;;3.60;;
30247;SDS011;17063;50.892;4.702;2022-07-23T10:10:07;4.27;;;3.30;;
30247;SDS011;17063;50.892;4.702;2022-07-23T10:12:53;5.90;;;3.27;;
30247;SDS011;17063;50.892;4.702;2022-07-23T10:15:21;7.93;;;2.90;;
30247;SDS011;17063;50.892;4.702;2022-07-23T10:17:48;3.27;;;2.40;;
30247;SDS011;17063;50.892;4.702;2022-07-23T10:20:15;2.80;;;2.50;;
30247;SDS011;17063;50.892;4.702;2022-07-23T10:22:50;3.57;;;2.90;;
30247;SDS011;17063;50.892;4.702;2022-07-23T10:25:40;6.57;;;3.00;;
30247;SDS011;17063;50.892;4.702;2022-07-23T10:28:13;3.10;;;2.30;;
30247;SDS011;17063;50.892;4.702;2022-07-23T10:34:21;5.47;;;2.90;;
30247;SDS011;17063;50.892;4.702;2022-07-23T10:36:56;6.47;;;2.93;;
30247;SDS011;17063;50.892;4.702;2022-07-23T10:39:33;9.40;;;3.30;;
30247;SDS011;17063;50.892;4.702;2022-07-23T10:44:44;4.90;;;2.57;;
30247;SDS011;17063;50.892;4.702;2022-07-23T10:47:29;2.70;;;2.30;;
30247;SDS011;17063;50.892;4.702;2022-07-23T10:50:22;5.00;;;3.30;;
30247;SDS011;17063;50.892;4.702;2022-07-23T10:55:41;3.10;;;2.20;;
30247;SDS011;17063;50.892;4.702;2022-07-23T10:58:09;6.60;;;3.33;;
30247;SDS011;17063;50.892;4.702;2022-07-23T11:00:37;5.20;;;2.83;;
30247;SDS011;17063;50.892;4.702;2022-07-23T11:05:59;2.93;;;2.60;;
30247;SDS011;17063;50.892;4.702;2022-07-23T11:08:26;5.57;;;2.80;;
30247;SDS011;17063;50.892;4.702;2022-07-23T11:11:16;5.97;;;2.80;;
30247;SDS011;17063;50.892;4.702;2022-07-23T11:13:42;5.87;;;2.97;;
30247;SDS011;17063;50.892;4.702;2022-07-23T11:16:12;2.37;;;2.17;;
30247;SDS011;17063;50.892;4.702;2022-07-23T11:21:54;2.87;;;2.20;;
30247;SDS011;17063;50.892;4.702;2022-07-23T11:32:22;2.30;;;2.10;;
30247;SDS011;17063;50.892;4.702;2022-07-23T11:34:53;2.40;;;2.20;;
30247;SDS011;17063;50.892;4.702;2022-07-23T11:37:35;2.57;;;2.23;;
30247;SDS011;17063;50.892;4.702;2022-07-23T11:42:39;6.33;;;2.70;;
30247;SDS011;17063;50.892;4.702;2022-07-23T11:45:07;3.47;;;1.97;;
30247;SDS011;17063;50.892;4.702;2022-07-23T11:47:34;2.33;;;2.13;;
30247;SDS011;17063;50.892;4.702;2022-07-23T11:50:03;3.33;;;2.47;;
30247;SDS011;17063;50.892;4.702;2022-07-23T11:52:31;3.50;;;1.90;;
30247;SDS011;17063;50.892;4.702;2022-07-23T11:54:59;6.07;;;1.93;;
30247;SDS011;17063;50.892;4.702;2022-07-23T11:57:33;3.97;;;2.30;;
30247;SDS011;17063;50.892;4.702;2022-07-23T12:02:47;5.67;;;2.30;;
30247;SDS011;17063;50.892;4.702;2022-07-23T12:05:17;3.60;;;2.23;;
30247;SDS011;17063;50.892;4.702;2022-07-23T12:07:45;2.10;;;2.00;;
30247;SDS011;17063;50.892;4.702;2022-07-23T12:10:17;3.63;;;2.17;;
30247;SDS011;17063;50.892;4.702;2022-07-23T12:12:45;4.53;;;2.17;;
30247;SDS011;17063;50.892;4.702;2022-07-23T12:15:13;2.87;;;2.40;;
30247;SDS011;17063;50.892;4.702;2022-07-23T12:17:41;4.17;;;2.53;;
30247;SDS011;17063;50.892;4.702;2022-07-23T12:20:18;3.20;;;2.63;;
30247;SDS011;17063;50.892;4.702;2022-07-23T12:22:51;3.23;;;2.20;;
30247;SDS011;17063;50.892;4.702;2022-07-23T12:25:23;3.13;;;2.10;;
30247;SDS011;17063;50.892;4.702;2022-07-23T12:28:01;3.00;;;2.10;;
30247;SDS011;17063;50.892;4.702;2022-07-23T12:33:13;5.87;;;2.50;;
30247;SDS011;17063;50.892;4.702;2022-07-23T12:35:43;5.13;;;2.30;;
30247;SDS011;17063;50.892;4.702;2022-07-23T12:38:14;5.33;;;3.03;;
30247;SDS011;17063;50.892;4.702;2022-07-23T12:40:46;3.93;;;2.30;;
30247;SDS011;17063;50.892;4.702;2022-07-23T12:43:27;4.57;;;2.10;;
30247;SDS011;17063;50.892;4.702;2022-07-23T12:46:00;2.50;;;2.30;;
30247;SDS011;17063;50.892;4.702;2022-07-23T12:48:33;3.97;;;2.30;;
30247;SDS011;17063;50.892;4.702;2022-07-23T12:51:05;2.77;;;1.87;;
30247;SDS011;17063;50.892;4.702;2022-07-23T12:53:45;7.87;;;2.90;;
30247;SDS011;17063;50.892;4.702;2022-07-23T12:56:15;4.53;;;3.00;;
30247;SDS011;17063;50.892;4.702;2022-07-23T12:58:47;2.37;;;2.17;;
30247;SDS011;17063;50.892;4.702;2022-07-23T13:06:30;3.00;;;1.97;;
30247;SDS011;17063;50.892;4.702;2022-07-23T13:08:59;3.30;;;1.90;;
30247;SDS011;17063;50.892;4.702;2022-07-23T13:11:28;2.80;;;2.30;;
30247;SDS011;17063;50.892;4.702;2022-07-23T13:13:56;3.50;;;2.03;;
30247;SDS011;17063;50.892;4.702;2022-07-23T13:16:23;2.90;;;1.90;;
30247;SDS011;17063;50.892;4.702;2022-07-23T13:18:53;5.80;;;2.30;;
30247;SDS011;17063;50.892;4.702;2022-07-23T13:21:20;3.20;;;2.30;;
30247;SDS011;17063;50.892;4.702;2022-07-23T13:23:49;3.57;;;2.27;;
30247;SDS011;17063;50.892;4.702;2022-07-23T13:26:16;2.93;;;2.10;;
30247;SDS011;17063;50.892;4.702;2022-07-23T13:28:43;6.90;;;2.70;;
30247;SDS011;17063;50.892;4.702;2022-07-23T13:31:10;2.30;;;2.10;;
30247;SDS011;17063;50.892;4.702;2022-07-23T13:33:38;4.03;;;2.37;;
30247;SDS011;17063;50.892;4.702;2022-07-23T13:36:05;4.17;;;2.27;;
30247;SDS011;17063;50.892;4.702;2022-07-23T13:38:32;2.60;;;2.17;;
30247;SDS011;17063;50.892;4.702;2022-07-23T13:40:59;3.37;;;2.40;;
30247;SDS011;17063;50.892;4.702;2022-07-23T13:43:27;2.50;;;2.30;;
30247;SDS011;17063;50.892;4.702;2022-07-23T13:46:01;2.77;;;2.30;;
30247;SDS011;17063;50.892;4.702;2022-07-23T13:48:31;4.03;;;2.57;;
30247;SDS011;17063;50.892;4.702;2022-07-23T13:50:57;3.37;;;2.17;;
30247;SDS011;17063;50.892;4.702;2022-07-23T13:53:26;3.83;;;2.33;;
30247;SDS011;17063;50.892;4.702;2022-07-23T13:55:53;3.43;;;2.20;;
30247;SDS011;17063;50.892;4.702;2022-07-23T13:58:24;2.57;;;2.00;;
30247;SDS011;17063;50.892;4.702;2022-07-23T14:00:52;2.80;;;2.40;;
30247;SDS011;17063;50.892;4.702;2022-07-23T14:03:20;2.70;;;2.27;;
30247;SDS011;17063;50.892;4.702;2022-07-23T14:05:51;2.47;;;2.27;;
30247;SDS011;17063;50.892;4.702;2022-07-23T14:08:21;3.57;;;2.10;;
30247;SDS011;17063;50.892;4.702;2022-07-23T14:10:48;3.83;;;2.50;;
30247;SDS011;17063;50.892;4.702;2022-07-23T14:13:16;3.97;;;2.30;;
30247;SDS011;17063;50.892;4.702;2022-07-23T14:15:47;6.00;;;2.40;;
30247;SDS011;17063;50.892;4.702;2022-07-23T14:18:15;2.47;;;2.27;;
30247;SDS011;17063;50.892;4.702;2022-07-23T14:20:43;3.97;;;2.40;;
30247;SDS011;17063;50.892;4.702;2022-07-23T14:23:09;4.97;;;2.63;;
30247;SDS011;17063;50.892;4.702;2022-07-23T14:25:39;2.10;;;2.00;;
30247;SDS011;17063;50.892;4.702;2022-07-23T14:28:06;3.47;;;2.70;;
30247;SDS011;17063;50.892;4.702;2022-07-23T14:30:34;4.20;;;2.50;;
30247;SDS011;17063;50.892;4.702;2022-07-23T14:33:01;2.70;;;2.50;;
30247;SDS011;17063;50.892;4.702;2022-07-23T14:35:28;5.97;;;2.50;;
30247;SDS011;17063;50.892;4.702;2022-07-23T14:37:55;2.90;;;2.60;;
30247;SDS011;17063;50.892;4.702;2022-07-23T14:40:23;3.23;;;2.43;;
30247;SDS011;17063;50.892;4.702;2022-07-23T14:42:50;5.60;;;2.33;;
30247;SDS011;17063;50.892;4.702;2022-07-23T14:45:17;4.30;;;2.40;;
30247;SDS011;17063;50.892;4.702;2022-07-23T14:47:44;2.53;;;2.27;;
30247;SDS011;17063;50.892;4.702;2022-07-23T14:50:13;4.03;;;2.40;;
30247;SDS011;17063;50.892;4.702;2022-07-23T14:52:43;4.00;;;2.53;;
30247;SDS011;17063;50.892;4.702;2022-07-23T14:55:09;10.10;;;2.90;;
30247;SDS011;17063;50.892;4.702;2022-07-23T14:57:36;3.60;;;2.70;;
30247;SDS011;17063;50.892;4.702;2022-07-23T15:00:03;5.70;;;3.00;;
30247;SDS011;17063;50.892;4.702;2022-07-23T15:02:34;3.50;;;2.97;;
30247;SDS011;17063;50.892;4.702;2022-07-23T15:05:01;3.07;;;2.80;;
30247;SDS011;17063;50.892;4.702;2022-07-23T15:07:32;2.93;;;2.53;;
30247;SDS011;17063;50.892;4.702;2022-07-23T15:09:59;3.27;;;2.63;;
30247;SDS011;17063;50.892;4.702;2022-07-23T15:12:28;4.93;;;3.10;;
30247;SDS011;17063;50.892;4.702;2022-07-23T15:14:54;3.33;;;2.97;;
30247;SDS011;17063;50.892;4.702;2022-07-23T15:17:21;5.37;;;3.20;;
30247;SDS011;17063;50.892;4.702;2022-07-23T15:19:52;4.20;;;3.07;;
30247;SDS011;17063;50.892;4.702;2022-07-23T15:22:19;5.30;;;3.47;;
30247;SDS011;17063;50.892;4.702;2022-07-23T15:24:45;3.83;;;3.00;;
30247;SDS011;17063;50.892;4.702;2022-07-23T15:27:12;3.77;;;3.03;;
30247;SDS011;17063;50.892;4.702;2022-07-23T15:29:42;3.07;;;2.77;;
30247;SDS011;17063;50.892;4.702;2022-07-23T15:32:09;5.67;;;3.27;;